sensor_id;sensor_type;location;lat;lon;timestamp;temperature;humidity
12015;DHT22;6066;48.138;16.402;2023-03-23T00:02:13;7.30;99.90
12015;DHT22;6066;48.138;16.402;2023-03-23T00:04:40;7.20;99.90
12015;DHT22;6066;48.138;16.402;2023-03-23T00:07:07;7.10;99.90
12015;DHT22;6066;48.138;16.402;2023-03-23T00:09:35;7.10;99.90
12015;DHT22;6066;48.138;16.402;2023-03-23T00:12:06;7.10;99.90
12015;DHT22;6066;48.138;16.402;2023-03-23T00:14:33;7.00;99.90
12015;DHT22;6066;48.138;16.402;2023-03-23T00:17:06;7.00;99.90
12015;DHT22;6066;48.138;16.402;2023-03-23T00:19:35;7.00;99.90
12015;DHT22;6066;48.138;16.402;2023-03-23T00:22:12;7.00;99.90
12015;DHT22;6066;48.138;16.402;2023-03-23T00:24:40;7.00;99.90
12015;DHT22;6066;48.138;16.402;2023-03-23T00:27:07;6.90;99.90
12015;DHT22;6066;48.138;16.402;2023-03-23T00:29:37;6.90;99.90
12015;DHT22;6066;48.138;16.402;2023-03-23T00:32:04;6.90;99.90
12015;DHT22;6066;48.138;16.402;2023-03-23T00:34:31;6.90;99.90
12015;DHT22;6066;48.138;16.402;2023-03-23T00:37:00;6.90;99.90
12015;DHT22;6066;48.138;16.402;2023-03-23T00:39:27;6.90;99.90
12015;DHT22;6066;48.138;16.402;2023-03-23T00:41:55;6.80;99.90
12015;DHT22;6066;48.138;16.402;2023-03-23T00:44:26;6.80;99.90
12015;DHT22;6066;48.138;16.402;2023-03-23T00:46:53;6.80;99.90
12015;DHT22;6066;48.138;16.402;2023-03-23T00:49:22;6.70;99.90
12015;DHT22;6066;48.138;16.402;2023-03-23T00:51:50;6.70;99.90
12015;DHT22;6066;48.138;16.402;2023-03-23T00:54:17;6.60;99.90
12015;DHT22;6066;48.138;16.402;2023-03-23T00:56:44;6.60;99.90
12015;DHT22;6066;48.138;16.402;2023-03-23T00:59:12;6.60;99.90
12015;DHT22;6066;48.138;16.402;2023-03-23T01:01:39;6.50;99.90
12015;DHT22;6066;48.138;16.402;2023-03-23T01:04:06;6.50;99.90
12015;DHT22;6066;48.138;16.402;2023-03-23T01:06:33;6.50;99.90
12015;DHT22;6066;48.138;16.402;2023-03-23T01:09:00;6.50;99.90
12015;DHT22;6066;48.138;16.402;2023-03-23T01:11:28;6.50;99.90
12015;DHT22;6066;48.138;16.402;2023-03-23T01:13:55;6.50;99.90
12015;DHT22;6066;48.138;16.402;2023-03-23T01:16:23;6.40;99.90
12015;DHT22;6066;48.138;16.402;2023-03-23T01:18:50;6.40;99.90
12015;DHT22;6066;48.138;16.402;2023-03-23T01:21:17;6.50;99.90
12015;DHT22;6066;48.138;16.402;2023-03-23T01:23:45;6.50;99.90
12015;DHT22;6066;48.138;16.402;2023-03-23T01:26:12;6.40;99.90
12015;DHT22;6066;48.138;16.402;2023-03-23T01:28:39;6.40;99.90
12015;DHT22;6066;48.138;16.402;2023-03-23T01:31:07;6.40;99.90
12015;DHT22;6066;48.138;16.402;2023-03-23T01:33:36;6.40;99.90
12015;DHT22;6066;48.138;16.402;2023-03-23T01:36:05;6.30;99.90
12015;DHT22;6066;48.138;16.402;2023-03-23T01:38:32;6.30;99.90
12015;DHT22;6066;48.138;16.402;2023-03-23T01:40:59;6.30;99.90
12015;DHT22;6066;48.138;16.402;2023-03-23T01:43:26;6.30;99.90
12015;DHT22;6066;48.138;16.402;2023-03-23T01:45:52;6.30;99.90
12015;DHT22;6066;48.138;16.402;2023-03-23T01:48:21;6.30;99.90
12015;DHT22;6066;48.138;16.402;2023-03-23T01:50:51;6.30;99.90
12015;DHT22;6066;48.138;16.402;2023-03-23T01:53:19;6.20;99.90
12015;DHT22;6066;48.138;16.402;2023-03-23T01:55:46;6.20;99.90
12015;DHT22;6066;48.138;16.402;2023-03-23T01:58:16;6.10;99.90
12015;DHT22;6066;48.138;16.402;2023-03-23T02:00:43;6.10;99.90
12015;DHT22;6066;48.138;16.402;2023-03-23T02:03:10;6.00;99.90
12015;DHT22;6066;48.138;16.402;2023-03-23T02:05:39;6.00;99.90
12015;DHT22;6066;48.138;16.402;2023-03-23T02:08:08;6.00;99.90
12015;DHT22;6066;48.138;16.402;2023-03-23T02:10:36;5.90;99.90
12015;DHT22;6066;48.138;16.402;2023-03-23T02:13:04;5.90;99.90
12015;DHT22;6066;48.138;16.402;2023-03-23T02:15:33;5.90;99.90
12015;DHT22;6066;48.138;16.402;2023-03-23T02:18:03;5.90;99.90
12015;DHT22;6066;48.138;16.402;2023-03-23T02:20:38;6.00;99.90
12015;DHT22;6066;48.138;16.402;2023-03-23T02:23:20;6.00;99.90
12015;DHT22;6066;48.138;16.402;2023-03-23T02:25:55;6.10;99.90
12015;DHT22;6066;48.138;16.402;2023-03-23T02:28:38;6.10;99.90
12015;DHT22;6066;48.138;16.402;2023-03-23T02:31:13;6.10;99.90
12015;DHT22;6066;48.138;16.402;2023-03-23T02:33:47;6.10;99.90
12015;DHT22;6066;48.138;16.402;2023-03-23T02:36:19;6.10;99.90
12015;DHT22;6066;48.138;16.402;2023-03-23T02:38:50;6.00;99.90
12015;DHT22;6066;48.138;16.402;2023-03-23T02:41:18;6.00;99.90
12015;DHT22;6066;48.138;16.402;2023-03-23T02:43:45;5.90;99.90
12015;DHT22;6066;48.138;16.402;2023-03-23T02:46:12;5.90;99.90
12015;DHT22;6066;48.138;16.402;2023-03-23T02:48:40;5.80;99.90
12015;DHT22;6066;48.138;16.402;2023-03-23T02:51:09;5.80;99.90
12015;DHT22;6066;48.138;16.402;2023-03-23T02:53:37;5.70;99.90
12015;DHT22;6066;48.138;16.402;2023-03-23T02:56:06;5.70;99.90
12015;DHT22;6066;48.138;16.402;2023-03-23T02:58:34;5.70;99.90
12015;DHT22;6066;48.138;16.402;2023-03-23T03:01:11;5.60;99.90
12015;DHT22;6066;48.138;16.402;2023-03-23T03:03:39;5.60;99.90
12015;DHT22;6066;48.138;16.402;2023-03-23T03:06:07;5.60;99.90
12015;DHT22;6066;48.138;16.402;2023-03-23T03:08:40;5.60;99.90
12015;DHT22;6066;48.138;16.402;2023-03-23T03:11:12;5.50;99.90
12015;DHT22;6066;48.138;16.402;2023-03-23T03:13:42;5.50;99.90
12015;DHT22;6066;48.138;16.402;2023-03-23T03:16:13;5.50;99.90
12015;DHT22;6066;48.138;16.402;2023-03-23T03:18:43;5.50;99.90
12015;DHT22;6066;48.138;16.402;2023-03-23T03:21:11;5.50;99.90
12015;DHT22;6066;48.138;16.402;2023-03-23T03:23:42;5.50;99.90
12015;DHT22;6066;48.138;16.402;2023-03-23T03:26:10;5.50;99.90
12015;DHT22;6066;48.138;16.402;2023-03-23T03:28:37;5.50;99.90
12015;DHT22;6066;48.138;16.402;2023-03-23T03:31:04;5.50;99.90
12015;DHT22;6066;48.138;16.402;2023-03-23T03:33:32;5.50;99.90
12015;DHT22;6066;48.138;16.402;2023-03-23T03:35:59;5.50;99.90
12015;DHT22;6066;48.138;16.402;2023-03-23T03:38:27;5.50;99.90
12015;DHT22;6066;48.138;16.402;2023-03-23T03:40:55;5.50;99.90
12015;DHT22;6066;48.138;16.402;2023-03-23T03:43:22;5.50;99.90
12015;DHT22;6066;48.138;16.402;2023-03-23T03:45:49;5.60;99.90
12015;DHT22;6066;48.138;16.402;2023-03-23T03:48:16;5.60;99.90
12015;DHT22;6066;48.138;16.402;2023-03-23T03:50:42;5.50;99.90
12015;DHT22;6066;48.138;16.402;2023-03-23T03:53:09;5.60;99.90
12015;DHT22;6066;48.138;16.402;2023-03-23T03:55:36;5.60;99.90
12015;DHT22;6066;48.138;16.402;2023-03-23T03:58:05;5.60;99.90
12015;DHT22;6066;48.138;16.402;2023-03-23T04:00:33;5.60;99.90
12015;DHT22;6066;48.138;16.402;2023-03-23T04:02:59;5.60;99.90
12015;DHT22;6066;48.138;16.402;2023-03-23T04:05:26;5.50;99.90
12015;DHT22;6066;48.138;16.402;2023-03-23T04:07:55;5.50;99.90
12015;DHT22;6066;48.138;16.402;2023-03-23T04:10:26;5.50;99.90
12015;DHT22;6066;48.138;16.402;2023-03-23T04:12:54;5.50;99.90
12015;DHT22;6066;48.138;16.402;2023-03-23T04:15:22;5.50;99.90
12015;DHT22;6066;48.138;16.402;2023-03-23T04:17:49;5.50;99.90
12015;DHT22;6066;48.138;16.402;2023-03-23T04:20:16;5.50;99.90
12015;DHT22;6066;48.138;16.402;2023-03-23T04:22:43;5.50;99.90
12015;DHT22;6066;48.138;16.402;2023-03-23T04:25:16;5.50;99.90
12015;DHT22;6066;48.138;16.402;2023-03-23T04:27:46;5.50;99.90
12015;DHT22;6066;48.138;16.402;2023-03-23T04:30:18;5.50;99.90
12015;DHT22;6066;48.138;16.402;2023-03-23T04:32:46;5.60;99.90
12015;DHT22;6066;48.138;16.402;2023-03-23T04:35:16;5.50;99.90
12015;DHT22;6066;48.138;16.402;2023-03-23T04:37:43;5.60;99.90
12015;DHT22;6066;48.138;16.402;2023-03-23T04:40:10;5.60;99.90
12015;DHT22;6066;48.138;16.402;2023-03-23T04:42:38;5.60;99.90
12015;DHT22;6066;48.138;16.402;2023-03-23T04:45:05;5.60;99.90
12015;DHT22;6066;48.138;16.402;2023-03-23T04:47:33;5.50;99.90
12015;DHT22;6066;48.138;16.402;2023-03-23T04:50:06;5.50;99.90
12015;DHT22;6066;48.138;16.402;2023-03-23T04:52:33;5.50;99.90
12015;DHT22;6066;48.138;16.402;2023-03-23T04:55:03;5.50;99.90
12015;DHT22;6066;48.138;16.402;2023-03-23T04:57:30;5.40;99.90
12015;DHT22;6066;48.138;16.402;2023-03-23T04:59:57;5.30;99.90
12015;DHT22;6066;48.138;16.402;2023-03-23T05:02:23;5.30;99.90
12015;DHT22;6066;48.138;16.402;2023-03-23T05:04:50;5.30;99.90
12015;DHT22;6066;48.138;16.402;2023-03-23T05:07:19;5.20;99.90
12015;DHT22;6066;48.138;16.402;2023-03-23T05:09:46;5.20;99.90
12015;DHT22;6066;48.138;16.402;2023-03-23T05:12:13;5.20;99.90
12015;DHT22;6066;48.138;16.402;2023-03-23T05:14:40;5.30;99.90
12015;DHT22;6066;48.138;16.402;2023-03-23T05:17:07;5.30;99.90
12015;DHT22;6066;48.138;16.402;2023-03-23T05:19:34;5.40;99.90
12015;DHT22;6066;48.138;16.402;2023-03-23T05:22:01;5.40;99.90
12015;DHT22;6066;48.138;16.402;2023-03-23T05:24:30;5.50;99.90
12015;DHT22;6066;48.138;16.402;2023-03-23T05:26:58;5.60;99.90
12015;DHT22;6066;48.138;16.402;2023-03-23T05:29:24;5.60;99.90
12015;DHT22;6066;48.138;16.402;2023-03-23T05:31:51;5.70;99.90
12015;DHT22;6066;48.138;16.402;2023-03-23T05:34:21;5.80;99.90
12015;DHT22;6066;48.138;16.402;2023-03-23T05:36:47;5.90;99.90
12015;DHT22;6066;48.138;16.402;2023-03-23T05:39:14;6.00;99.90
12015;DHT22;6066;48.138;16.402;2023-03-23T05:41:43;6.10;99.90
12015;DHT22;6066;48.138;16.402;2023-03-23T05:44:09;6.20;99.90
12015;DHT22;6066;48.138;16.402;2023-03-23T05:46:38;6.30;99.90
12015;DHT22;6066;48.138;16.402;2023-03-23T05:49:05;6.40;99.90
12015;DHT22;6066;48.138;16.402;2023-03-23T05:51:32;6.60;99.90
12015;DHT22;6066;48.138;16.402;2023-03-23T05:54:00;6.70;99.90
12015;DHT22;6066;48.138;16.402;2023-03-23T05:56:27;6.80;99.90
12015;DHT22;6066;48.138;16.402;2023-03-23T05:58:55;6.90;99.90
12015;DHT22;6066;48.138;16.402;2023-03-23T06:01:21;7.10;99.90
12015;DHT22;6066;48.138;16.402;2023-03-23T06:03:49;7.20;99.90
12015;DHT22;6066;48.138;16.402;2023-03-23T06:06:19;7.30;99.90
12015;DHT22;6066;48.138;16.402;2023-03-23T06:08:46;7.40;99.90
12015;DHT22;6066;48.138;16.402;2023-03-23T06:11:13;7.50;99.90
12015;DHT22;6066;48.138;16.402;2023-03-23T06:13:40;7.60;99.90
12015;DHT22;6066;48.138;16.402;2023-03-23T06:16:08;7.70;99.90
12015;DHT22;6066;48.138;16.402;2023-03-23T06:18:35;7.70;99.90
12015;DHT22;6066;48.138;16.402;2023-03-23T06:21:02;7.80;99.90
12015;DHT22;6066;48.138;16.402;2023-03-23T06:23:29;7.90;99.90
12015;DHT22;6066;48.138;16.402;2023-03-23T06:25:57;7.90;99.90
12015;DHT22;6066;48.138;16.402;2023-03-23T06:28:24;8.00;99.90
12015;DHT22;6066;48.138;16.402;2023-03-23T06:30:50;8.00;99.90
12015;DHT22;6066;48.138;16.402;2023-03-23T06:33:19;8.10;99.90
12015;DHT22;6066;48.138;16.402;2023-03-23T06:35:46;8.20;99.90
12015;DHT22;6066;48.138;16.402;2023-03-23T06:38:13;8.30;99.90
12015;DHT22;6066;48.138;16.402;2023-03-23T06:40:41;8.30;99.90
12015;DHT22;6066;48.138;16.402;2023-03-23T06:43:12;8.40;99.90
12015;DHT22;6066;48.138;16.402;2023-03-23T06:45:39;8.50;99.90
12015;DHT22;6066;48.138;16.402;2023-03-23T06:48:05;8.60;99.90
12015;DHT22;6066;48.138;16.402;2023-03-23T06:50:33;8.80;99.90
12015;DHT22;6066;48.138;16.402;2023-03-23T06:53:00;8.90;99.90
12015;DHT22;6066;48.138;16.402;2023-03-23T06:55:27;9.00;99.90
12015;DHT22;6066;48.138;16.402;2023-03-23T06:57:54;9.20;99.90
12015;DHT22;6066;48.138;16.402;2023-03-23T07:00:20;9.30;99.90
12015;DHT22;6066;48.138;16.402;2023-03-23T07:02:47;9.50;99.90
12015;DHT22;6066;48.138;16.402;2023-03-23T07:05:14;9.50;99.90
12015;DHT22;6066;48.138;16.402;2023-03-23T07:07:42;9.60;99.90
12015;DHT22;6066;48.138;16.402;2023-03-23T07:10:09;9.60;99.90
12015;DHT22;6066;48.138;16.402;2023-03-23T07:12:36;9.70;99.90
12015;DHT22;6066;48.138;16.402;2023-03-23T07:15:03;9.80;99.90
12015;DHT22;6066;48.138;16.402;2023-03-23T07:17:31;9.90;99.90
12015;DHT22;6066;48.138;16.402;2023-03-23T07:19:57;9.90;99.90
12015;DHT22;6066;48.138;16.402;2023-03-23T07:22:24;10.00;99.90
12015;DHT22;6066;48.138;16.402;2023-03-23T07:24:52;10.10;99.90
12015;DHT22;6066;48.138;16.402;2023-03-23T07:27:19;10.20;99.90
12015;DHT22;6066;48.138;16.402;2023-03-23T07:29:45;10.30;99.90
12015;DHT22;6066;48.138;16.402;2023-03-23T07:32:14;10.40;99.90
12015;DHT22;6066;48.138;16.402;2023-03-23T07:34:41;10.50;99.90
12015;DHT22;6066;48.138;16.402;2023-03-23T07:37:07;10.60;99.90
12015;DHT22;6066;48.138;16.402;2023-03-23T07:39:35;10.60;99.90
12015;DHT22;6066;48.138;16.402;2023-03-23T07:42:03;10.70;99.90
12015;DHT22;6066;48.138;16.402;2023-03-23T07:44:32;10.80;99.90
12015;DHT22;6066;48.138;16.402;2023-03-23T07:46:59;10.90;99.90
12015;DHT22;6066;48.138;16.402;2023-03-23T07:49:25;11.00;99.90
12015;DHT22;6066;48.138;16.402;2023-03-23T07:51:53;11.00;99.90
12015;DHT22;6066;48.138;16.402;2023-03-23T07:54:19;11.00;99.90
12015;DHT22;6066;48.138;16.402;2023-03-23T07:56:46;11.10;99.90
12015;DHT22;6066;48.138;16.402;2023-03-23T07:59:14;11.20;99.90
12015;DHT22;6066;48.138;16.402;2023-03-23T08:01:41;11.30;99.90
12015;DHT22;6066;48.138;16.402;2023-03-23T08:04:08;11.40;99.90
12015;DHT22;6066;48.138;16.402;2023-03-23T08:06:35;11.40;99.90
12015;DHT22;6066;48.138;16.402;2023-03-23T08:09:02;11.50;99.90
12015;DHT22;6066;48.138;16.402;2023-03-23T08:11:31;11.60;99.90
12015;DHT22;6066;48.138;16.402;2023-03-23T08:13:58;11.70;99.90
12015;DHT22;6066;48.138;16.402;2023-03-23T08:16:27;11.80;99.90
12015;DHT22;6066;48.138;16.402;2023-03-23T08:18:53;11.90;99.90
12015;DHT22;6066;48.138;16.402;2023-03-23T08:21:22;12.00;99.90
12015;DHT22;6066;48.138;16.402;2023-03-23T08:23:48;12.20;99.90
12015;DHT22;6066;48.138;16.402;2023-03-23T08:26:15;12.20;99.90
12015;DHT22;6066;48.138;16.402;2023-03-23T08:28:42;12.30;99.90
12015;DHT22;6066;48.138;16.402;2023-03-23T08:31:10;12.20;99.90
12015;DHT22;6066;48.138;16.402;2023-03-23T08:33:38;12.10;99.90
12015;DHT22;6066;48.138;16.402;2023-03-23T08:36:07;12.00;99.90
12015;DHT22;6066;48.138;16.402;2023-03-23T08:38:36;12.00;99.90
12015;DHT22;6066;48.138;16.402;2023-03-23T08:41:03;11.80;99.90
12015;DHT22;6066;48.138;16.402;2023-03-23T08:43:30;11.80;99.90
12015;DHT22;6066;48.138;16.402;2023-03-23T08:45:58;11.60;99.90
12015;DHT22;6066;48.138;16.402;2023-03-23T08:48:24;11.50;99.90
12015;DHT22;6066;48.138;16.402;2023-03-23T08:50:52;11.40;99.90
12015;DHT22;6066;48.138;16.402;2023-03-23T08:53:19;11.30;99.90
12015;DHT22;6066;48.138;16.402;2023-03-23T08:55:47;11.30;99.90
12015;DHT22;6066;48.138;16.402;2023-03-23T08:58:14;11.30;99.90
12015;DHT22;6066;48.138;16.402;2023-03-23T09:00:41;11.40;99.90
12015;DHT22;6066;48.138;16.402;2023-03-23T09:03:08;11.60;99.90
12015;DHT22;6066;48.138;16.402;2023-03-23T09:05:34;11.80;99.90
12015;DHT22;6066;48.138;16.402;2023-03-23T09:08:04;11.90;99.90
12015;DHT22;6066;48.138;16.402;2023-03-23T09:10:31;12.10;99.90
12015;DHT22;6066;48.138;16.402;2023-03-23T09:12:58;12.30;99.90
12015;DHT22;6066;48.138;16.402;2023-03-23T09:15:24;12.50;99.90
12015;DHT22;6066;48.138;16.402;2023-03-23T09:17:51;12.70;99.90
12015;DHT22;6066;48.138;16.402;2023-03-23T09:20:19;12.90;99.90
12015;DHT22;6066;48.138;16.402;2023-03-23T09:22:48;13.10;99.90
12015;DHT22;6066;48.138;16.402;2023-03-23T09:25:17;13.30;99.90
12015;DHT22;6066;48.138;16.402;2023-03-23T09:27:48;13.50;99.90
12015;DHT22;6066;48.138;16.402;2023-03-23T09:30:18;13.70;99.90
12015;DHT22;6066;48.138;16.402;2023-03-23T09:32:45;13.80;99.90
12015;DHT22;6066;48.138;16.402;2023-03-23T09:35:13;14.00;99.90
12015;DHT22;6066;48.138;16.402;2023-03-23T09:37:42;14.10;99.90
12015;DHT22;6066;48.138;16.402;2023-03-23T09:40:10;14.30;99.90
12015;DHT22;6066;48.138;16.402;2023-03-23T09:42:43;14.40;99.90
12015;DHT22;6066;48.138;16.402;2023-03-23T09:45:15;14.60;99.90
12015;DHT22;6066;48.138;16.402;2023-03-23T09:47:44;14.70;99.90
12015;DHT22;6066;48.138;16.402;2023-03-23T09:50:13;14.70;99.90
12015;DHT22;6066;48.138;16.402;2023-03-23T09:52:42;14.80;99.90
12015;DHT22;6066;48.138;16.402;2023-03-23T09:55:11;14.90;99.90
12015;DHT22;6066;48.138;16.402;2023-03-23T09:57:41;15.00;99.90
12015;DHT22;6066;48.138;16.402;2023-03-23T10:00:15;15.20;99.90
12015;DHT22;6066;48.138;16.402;2023-03-23T10:02:45;15.30;99.90
12015;DHT22;6066;48.138;16.402;2023-03-23T10:05:22;15.40;99.90
12015;DHT22;6066;48.138;16.402;2023-03-23T10:07:50;15.50;99.90
12015;DHT22;6066;48.138;16.402;2023-03-23T10:10:17;15.70;99.90
12015;DHT22;6066;48.138;16.402;2023-03-23T10:12:45;15.80;99.90
12015;DHT22;6066;48.138;16.402;2023-03-23T10:15:15;15.90;99.90
12015;DHT22;6066;48.138;16.402;2023-03-23T10:17:45;16.10;99.90
12015;DHT22;6066;48.138;16.402;2023-03-23T10:22:58;16.30;99.90
12015;DHT22;6066;48.138;16.402;2023-03-23T10:25:28;16.40;99.90
12015;DHT22;6066;48.138;16.402;2023-03-23T10:27:58;16.60;99.90
12015;DHT22;6066;48.138;16.402;2023-03-23T10:30:29;16.70;99.90
12015;DHT22;6066;48.138;16.402;2023-03-23T10:32:58;16.80;99.90
12015;DHT22;6066;48.138;16.402;2023-03-23T10:35:29;17.00;99.90
12015;DHT22;6066;48.138;16.402;2023-03-23T10:37:58;17.10;99.90
12015;DHT22;6066;48.138;16.402;2023-03-23T10:40:27;17.20;99.90
12015;DHT22;6066;48.138;16.402;2023-03-23T10:42:55;17.30;99.90
12015;DHT22;6066;48.138;16.402;2023-03-23T10:45:24;17.30;99.90
12015;DHT22;6066;48.138;16.402;2023-03-23T10:47:54;17.30;99.90
12015;DHT22;6066;48.138;16.402;2023-03-23T10:50:23;17.40;99.90
12015;DHT22;6066;48.138;16.402;2023-03-23T10:52:50;17.50;99.90
12015;DHT22;6066;48.138;16.402;2023-03-23T10:55:19;17.60;99.90
12015;DHT22;6066;48.138;16.402;2023-03-23T10:57:46;17.70;99.90
12015;DHT22;6066;48.138;16.402;2023-03-23T11:00:17;17.80;99.90
12015;DHT22;6066;48.138;16.402;2023-03-23T11:02:45;17.80;99.90
12015;DHT22;6066;48.138;16.402;2023-03-23T11:05:18;17.90;99.90
12015;DHT22;6066;48.138;16.402;2023-03-23T11:07:51;17.80;99.90
12015;DHT22;6066;48.138;16.402;2023-03-23T11:10:21;17.90;99.90
12015;DHT22;6066;48.138;16.402;2023-03-23T11:12:49;18.10;99.90
12015;DHT22;6066;48.138;16.402;2023-03-23T11:15:29;18.20;99.90
12015;DHT22;6066;48.138;16.402;2023-03-23T11:17:57;18.30;99.90
12015;DHT22;6066;48.138;16.402;2023-03-23T11:20:26;18.50;99.90
12015;DHT22;6066;48.138;16.402;2023-03-23T11:22:54;18.60;99.90
12015;DHT22;6066;48.138;16.402;2023-03-23T11:25:22;18.70;99.90
12015;DHT22;6066;48.138;16.402;2023-03-23T11:27:48;18.80;99.90
12015;DHT22;6066;48.138;16.402;2023-03-23T11:30:20;18.90;99.90
12015;DHT22;6066;48.138;16.402;2023-03-23T11:32:48;19.00;99.90
12015;DHT22;6066;48.138;16.402;2023-03-23T11:35:16;19.10;99.90
12015;DHT22;6066;48.138;16.402;2023-03-23T11:37:45;19.10;99.90
12015;DHT22;6066;48.138;16.402;2023-03-23T11:40:14;19.20;99.90
12015;DHT22;6066;48.138;16.402;2023-03-23T11:42:42;19.30;99.90
12015;DHT22;6066;48.138;16.402;2023-03-23T11:45:14;19.30;99.90
12015;DHT22;6066;48.138;16.402;2023-03-23T11:47:42;19.30;99.90
12015;DHT22;6066;48.138;16.402;2023-03-23T11:50:12;19.30;99.90
12015;DHT22;6066;48.138;16.402;2023-03-23T11:52:41;19.20;99.90
12015;DHT22;6066;48.138;16.402;2023-03-23T11:55:12;19.30;99.90
12015;DHT22;6066;48.138;16.402;2023-03-23T11:57:40;19.40;99.90
12015;DHT22;6066;48.138;16.402;2023-03-23T12:00:11;19.50;99.90
12015;DHT22;6066;48.138;16.402;2023-03-23T12:02:42;19.60;99.90
12015;DHT22;6066;48.138;16.402;2023-03-23T12:07:56;19.70;99.90
12015;DHT22;6066;48.138;16.402;2023-03-23T12:10:29;19.70;99.90
12015;DHT22;6066;48.138;16.402;2023-03-23T12:13:02;19.70;99.90
12015;DHT22;6066;48.138;16.402;2023-03-23T12:15:34;19.70;99.90
12015;DHT22;6066;48.138;16.402;2023-03-23T12:18:05;19.70;99.90
12015;DHT22;6066;48.138;16.402;2023-03-23T12:20:36;19.70;99.90
12015;DHT22;6066;48.138;16.402;2023-03-23T12:23:08;19.70;99.90
12015;DHT22;6066;48.138;16.402;2023-03-23T12:28:31;19.60;99.90
12015;DHT22;6066;48.138;16.402;2023-03-23T12:31:01;19.50;99.90
12015;DHT22;6066;48.138;16.402;2023-03-23T12:33:33;19.40;99.90
12015;DHT22;6066;48.138;16.402;2023-03-23T12:36:07;19.30;99.90
12015;DHT22;6066;48.138;16.402;2023-03-23T12:38:46;19.30;99.90
12015;DHT22;6066;48.138;16.402;2023-03-23T12:41:15;19.50;99.90
12015;DHT22;6066;48.138;16.402;2023-03-23T12:43:48;19.80;99.90
12015;DHT22;6066;48.138;16.402;2023-03-23T12:46:19;20.00;99.90
12015;DHT22;6066;48.138;16.402;2023-03-23T12:48:48;20.20;99.90
12015;DHT22;6066;48.138;16.402;2023-03-23T12:51:19;20.40;99.90
12015;DHT22;6066;48.138;16.402;2023-03-23T12:53:54;20.40;99.90
12015;DHT22;6066;48.138;16.402;2023-03-23T12:56:24;20.30;99.90
12015;DHT22;6066;48.138;16.402;2023-03-23T12:58:53;20.10;99.90
12015;DHT22;6066;48.138;16.402;2023-03-23T13:01:23;20.10;99.90
12015;DHT22;6066;48.138;16.402;2023-03-23T13:03:52;20.10;99.90
12015;DHT22;6066;48.138;16.402;2023-03-23T13:06:22;20.10;99.90
12015;DHT22;6066;48.138;16.402;2023-03-23T13:08:52;20.20;99.90
12015;DHT22;6066;48.138;16.402;2023-03-23T13:11:20;20.20;99.90
12015;DHT22;6066;48.138;16.402;2023-03-23T13:13:49;20.10;99.90
12015;DHT22;6066;48.138;16.402;2023-03-23T13:16:22;19.90;99.90
12015;DHT22;6066;48.138;16.402;2023-03-23T13:18:55;19.90;99.90
12015;DHT22;6066;48.138;16.402;2023-03-23T13:21:24;20.10;99.90
12015;DHT22;6066;48.138;16.402;2023-03-23T13:23:53;20.20;99.90
12015;DHT22;6066;48.138;16.402;2023-03-23T13:26:21;20.30;99.90
12015;DHT22;6066;48.138;16.402;2023-03-23T13:28:49;20.40;99.90
12015;DHT22;6066;48.138;16.402;2023-03-23T13:31:21;20.50;99.90
12015;DHT22;6066;48.138;16.402;2023-03-23T13:33:51;20.60;99.90
12015;DHT22;6066;48.138;16.402;2023-03-23T13:36:24;20.60;99.90
12015;DHT22;6066;48.138;16.402;2023-03-23T13:38:51;20.60;99.90
12015;DHT22;6066;48.138;16.402;2023-03-23T13:41:18;20.70;99.90
12015;DHT22;6066;48.138;16.402;2023-03-23T13:43:47;20.70;99.90
12015;DHT22;6066;48.138;16.402;2023-03-23T13:46:25;20.80;99.90
12015;DHT22;6066;48.138;16.402;2023-03-23T13:49:02;20.90;99.90
12015;DHT22;6066;48.138;16.402;2023-03-23T13:51:34;20.90;99.90
12015;DHT22;6066;48.138;16.402;2023-03-23T13:54:13;20.80;99.90
12015;DHT22;6066;48.138;16.402;2023-03-23T13:56:40;20.70;99.90
12015;DHT22;6066;48.138;16.402;2023-03-23T13:59:12;20.50;99.90
12015;DHT22;6066;48.138;16.402;2023-03-23T14:01:40;20.40;99.90
12015;DHT22;6066;48.138;16.402;2023-03-23T14:04:10;20.30;99.90
12015;DHT22;6066;48.138;16.402;2023-03-23T14:06:39;20.40;99.90
12015;DHT22;6066;48.138;16.402;2023-03-23T14:09:07;20.50;99.90
12015;DHT22;6066;48.138;16.402;2023-03-23T14:11:45;20.70;99.90
12015;DHT22;6066;48.138;16.402;2023-03-23T14:14:13;20.80;99.90
12015;DHT22;6066;48.138;16.402;2023-03-23T14:16:43;20.80;99.90
12015;DHT22;6066;48.138;16.402;2023-03-23T14:19:15;20.70;99.90
12015;DHT22;6066;48.138;16.402;2023-03-23T14:21:48;20.80;99.90
12015;DHT22;6066;48.138;16.402;2023-03-23T14:24:16;20.90;99.90
12015;DHT22;6066;48.138;16.402;2023-03-23T14:26:43;21.10;99.90
12015;DHT22;6066;48.138;16.402;2023-03-23T14:29:11;21.20;99.90
12015;DHT22;6066;48.138;16.402;2023-03-23T14:31:38;21.30;99.90
12015;DHT22;6066;48.138;16.402;2023-03-23T14:34:11;21.20;99.90
12015;DHT22;6066;48.138;16.402;2023-03-23T14:36:38;21.20;99.90
12015;DHT22;6066;48.138;16.402;2023-03-23T14:39:06;21.20;99.90
12015;DHT22;6066;48.138;16.402;2023-03-23T14:41:34;21.00;99.90
12015;DHT22;6066;48.138;16.402;2023-03-23T14:44:01;20.80;99.90
12015;DHT22;6066;48.138;16.402;2023-03-23T14:46:29;20.50;99.90
12015;DHT22;6066;48.138;16.402;2023-03-23T14:48:56;20.30;99.90
12015;DHT22;6066;48.138;16.402;2023-03-23T14:51:24;20.20;99.90
12015;DHT22;6066;48.138;16.402;2023-03-23T14:53:52;20.10;99.90
12015;DHT22;6066;48.138;16.402;2023-03-23T14:56:19;20.10;99.90
12015;DHT22;6066;48.138;16.402;2023-03-23T14:58:48;20.20;99.90
12015;DHT22;6066;48.138;16.402;2023-03-23T15:01:16;20.30;99.90
12015;DHT22;6066;48.138;16.402;2023-03-23T15:03:46;20.40;99.90
12015;DHT22;6066;48.138;16.402;2023-03-23T15:06:16;20.50;99.90
12015;DHT22;6066;48.138;16.402;2023-03-23T15:08:45;20.60;99.90
12015;DHT22;6066;48.138;16.402;2023-03-23T15:13:47;20.60;99.90
12015;DHT22;6066;48.138;16.402;2023-03-23T15:16:17;20.50;99.90
12015;DHT22;6066;48.138;16.402;2023-03-23T15:18:47;20.50;99.90
12015;DHT22;6066;48.138;16.402;2023-03-23T15:21:19;20.40;99.90
12015;DHT22;6066;48.138;16.402;2023-03-23T15:23:48;20.40;99.90
12015;DHT22;6066;48.138;16.402;2023-03-23T15:26:23;20.30;99.90
12015;DHT22;6066;48.138;16.402;2023-03-23T15:28:50;20.30;99.90
12015;DHT22;6066;48.138;16.402;2023-03-23T15:31:27;20.20;99.90
12015;DHT22;6066;48.138;16.402;2023-03-23T15:33:55;20.10;99.90
12015;DHT22;6066;48.138;16.402;2023-03-23T15:36:23;20.00;99.90
12015;DHT22;6066;48.138;16.402;2023-03-23T15:38:52;19.90;99.90
12015;DHT22;6066;48.138;16.402;2023-03-23T15:41:22;19.80;99.90
12015;DHT22;6066;48.138;16.402;2023-03-23T15:43:50;19.70;99.90
12015;DHT22;6066;48.138;16.402;2023-03-23T15:46:20;19.60;99.90
12015;DHT22;6066;48.138;16.402;2023-03-23T15:48:48;19.50;99.90
12015;DHT22;6066;48.138;16.402;2023-03-23T15:51:16;19.50;99.90
12015;DHT22;6066;48.138;16.402;2023-03-23T15:53:43;19.50;99.90
12015;DHT22;6066;48.138;16.402;2023-03-23T15:56:11;19.40;99.90
12015;DHT22;6066;48.138;16.402;2023-03-23T15:58:39;19.40;99.90